Annabella, Utah
Current Conditions -  °F | °C
As of 10:15 AM on Wednesday 26 Nov 2014 (Local Time) from KDTA Reporting Station
Clear Clear  
Wind Chill:   Ceiling: Unl
Heat Index:   Visibility: 10mi
Dew Point: -4°   Wind: 8mph
Humidity: 50%   Direction: 180°S
Pressure: 30.46"   Gusts: NA
Location:  38.71°N, 112.06°W
Report Text: KDTA 261715Z AUTO 18007KT 10SM CLR 05/M04 A3046 RMK AO1 T00521044
Loading
Personal Weather Stations






























Interactive Weather Map New forecast layout! Learn more

10-Day Weather Forecast

Advertisements
Track Severe Weather on mobile